sensor_id;sensor_type;location;lat;lon;timestamp;temperature;humidity
35277;DHT22;21401;50.878;8.050;2022-07-29T00:02:20;17.90;99.90
35277;DHT22;21401;50.878;8.050;2022-07-29T00:04:47;18.10;99.90
35277;DHT22;21401;50.878;8.050;2022-07-29T00:07:13;18.40;99.20
35277;DHT22;21401;50.878;8.050;2022-07-29T00:09:38;18.70;97.60
35277;DHT22;21401;50.878;8.050;2022-07-29T00:12:04;18.80;97.40
35277;DHT22;21401;50.878;8.050;2022-07-29T00:14:30;18.60;99.80
35277;DHT22;21401;50.878;8.050;2022-07-29T00:16:56;18.30;99.90
35277;DHT22;21401;50.878;8.050;2022-07-29T00:19:23;18.20;99.90
35277;DHT22;21401;50.878;8.050;2022-07-29T00:21:49;18.00;99.90
35277;DHT22;21401;50.878;8.050;2022-07-29T00:24:15;18.00;99.90
35277;DHT22;21401;50.878;8.050;2022-07-29T00:26:40;18.00;99.90
35277;DHT22;21401;50.878;8.050;2022-07-29T00:29:06;18.00;99.90
35277;DHT22;21401;50.878;8.050;2022-07-29T00:31:31;18.00;99.90
35277;DHT22;21401;50.878;8.050;2022-07-29T00:33:59;17.90;99.90
35277;DHT22;21401;50.878;8.050;2022-07-29T00:36:25;17.90;99.90
35277;DHT22;21401;50.878;8.050;2022-07-29T00:38:53;18.00;99.90
35277;DHT22;21401;50.878;8.050;2022-07-29T00:41:18;18.00;99.90
35277;DHT22;21401;50.878;8.050;2022-07-29T00:43:44;18.10;99.80
35277;DHT22;21401;50.878;8.050;2022-07-29T00:46:10;18.10;99.90
35277;DHT22;21401;50.878;8.050;2022-07-29T00:48:38;17.90;99.90
35277;DHT22;21401;50.878;8.050;2022-07-29T00:51:05;17.70;99.90
35277;DHT22;21401;50.878;8.050;2022-07-29T00:53:31;17.60;99.90
35277;DHT22;21401;50.878;8.050;2022-07-29T00:55:57;17.60;99.90
35277;DHT22;21401;50.878;8.050;2022-07-29T00:58:24;17.40;99.90
35277;DHT22;21401;50.878;8.050;2022-07-29T01:00:52;17.30;99.90
35277;DHT22;21401;50.878;8.050;2022-07-29T01:03:23;17.20;99.90
35277;DHT22;21401;50.878;8.050;2022-07-29T01:05:48;17.00;99.90
35277;DHT22;21401;50.878;8.050;2022-07-29T01:08:15;17.10;99.90
35277;DHT22;21401;50.878;8.050;2022-07-29T01:10:41;17.30;99.90
35277;DHT22;21401;50.878;8.050;2022-07-29T01:13:11;17.40;99.90
35277;DHT22;21401;50.878;8.050;2022-07-29T01:15:46;17.60;99.90
35277;DHT22;21401;50.878;8.050;2022-07-29T01:18:20;17.70;99.90
35277;DHT22;21401;50.878;8.050;2022-07-29T01:26:34;17.30;99.90
35277;DHT22;21401;50.878;8.050;2022-07-29T01:29:53;17.30;99.90
35277;DHT22;21401;50.878;8.050;2022-07-29T01:32:03;17.00;99.90
35277;DHT22;21401;50.878;8.050;2022-07-29T01:34:42;16.70;99.90
35277;DHT22;21401;50.878;8.050;2022-07-29T01:37:18;16.70;99.90
35277;DHT22;21401;50.878;8.050;2022-07-29T01:39:46;16.40;99.90
35277;DHT22;21401;50.878;8.050;2022-07-29T01:50:29;16.00;99.90
35277;DHT22;21401;50.878;8.050;2022-07-29T01:52:59;15.90;99.90
35277;DHT22;21401;50.878;8.050;2022-07-29T01:55:29;16.00;99.90
35277;DHT22;21401;50.878;8.050;2022-07-29T01:57:57;16.00;99.90
35277;DHT22;21401;50.878;8.050;2022-07-29T02:00:25;16.00;99.90
35277;DHT22;21401;50.878;8.050;2022-07-29T02:02:54;16.00;99.90
35277;DHT22;21401;50.878;8.050;2022-07-29T02:05:24;15.90;99.90
35277;DHT22;21401;50.878;8.050;2022-07-29T02:07:52;15.80;99.90
35277;DHT22;21401;50.878;8.050;2022-07-29T02:10:22;16.00;99.90
35277;DHT22;21401;50.878;8.050;2022-07-29T02:12:50;15.90;99.90
35277;DHT22;21401;50.878;8.050;2022-07-29T02:15:19;16.00;99.90
35277;DHT22;21401;50.878;8.050;2022-07-29T02:17:58;16.00;99.90
35277;DHT22;21401;50.878;8.050;2022-07-29T02:20:26;16.10;99.90
35277;DHT22;21401;50.878;8.050;2022-07-29T02:22:54;16.20;99.90
35277;DHT22;21401;50.878;8.050;2022-07-29T02:25:21;16.20;99.90
35277;DHT22;21401;50.878;8.050;2022-07-29T02:27:49;16.00;99.90
35277;DHT22;21401;50.878;8.050;2022-07-29T02:30:43;16.00;99.90
35277;DHT22;21401;50.878;8.050;2022-07-29T02:33:30;15.80;99.90
35277;DHT22;21401;50.878;8.050;2022-07-29T02:35:59;15.40;99.90
35277;DHT22;21401;50.878;8.050;2022-07-29T02:38:27;15.40;99.90
35277;DHT22;21401;50.878;8.050;2022-07-29T02:41:20;15.50;99.90
35277;DHT22;21401;50.878;8.050;2022-07-29T02:43:52;15.60;99.90
35277;DHT22;21401;50.878;8.050;2022-07-29T02:46:25;15.60;99.90
35277;DHT22;21401;50.878;8.050;2022-07-29T02:51:46;15.60;99.90
35277;DHT22;21401;50.878;8.050;2022-07-29T02:57:14;15.70;99.90
35277;DHT22;21401;50.878;8.050;2022-07-29T02:59:42;15.80;99.90
35277;DHT22;21401;50.878;8.050;2022-07-29T03:02:09;15.70;99.90
35277;DHT22;21401;50.878;8.050;2022-07-29T03:04:36;15.80;99.90
35277;DHT22;21401;50.878;8.050;2022-07-29T03:07:05;16.00;99.90
35277;DHT22;21401;50.878;8.050;2022-07-29T03:09:30;16.00;99.90
35277;DHT22;21401;50.878;8.050;2022-07-29T03:11:57;16.10;99.90
35277;DHT22;21401;50.878;8.050;2022-07-29T03:14:23;16.10;99.90
35277;DHT22;21401;50.878;8.050;2022-07-29T03:16:50;16.10;99.90
35277;DHT22;21401;50.878;8.050;2022-07-29T03:19:17;16.00;99.90
35277;DHT22;21401;50.878;8.050;2022-07-29T03:21:45;16.00;99.90
35277;DHT22;21401;50.878;8.050;2022-07-29T03:26:53;15.90;99.90
35277;DHT22;21401;50.878;8.050;2022-07-29T03:29:22;15.90;99.90
35277;DHT22;21401;50.878;8.050;2022-07-29T03:31:50;15.80;99.90
35277;DHT22;21401;50.878;8.050;2022-07-29T03:34:18;15.50;99.90
35277;DHT22;21401;50.878;8.050;2022-07-29T03:36:43;15.60;99.90
35277;DHT22;21401;50.878;8.050;2022-07-29T03:39:10;15.60;99.90
35277;DHT22;21401;50.878;8.050;2022-07-29T03:41:41;15.60;99.90
35277;DHT22;21401;50.878;8.050;2022-07-29T03:44:11;15.50;99.90
35277;DHT22;21401;50.878;8.050;2022-07-29T03:46:44;15.50;99.90
35277;DHT22;21401;50.878;8.050;2022-07-29T03:49:11;15.60;99.90
35277;DHT22;21401;50.878;8.050;2022-07-29T03:51:38;15.40;99.90
35277;DHT22;21401;50.878;8.050;2022-07-29T03:54:04;15.40;99.90
35277;DHT22;21401;50.878;8.050;2022-07-29T03:56:32;15.50;99.90
35277;DHT22;21401;50.878;8.050;2022-07-29T03:59:01;15.60;99.90
35277;DHT22;21401;50.878;8.050;2022-07-29T04:01:28;15.50;99.90
35277;DHT22;21401;50.878;8.050;2022-07-29T04:03:56;15.50;99.90
35277;DHT22;21401;50.878;8.050;2022-07-29T04:06:22;15.50;99.90
35277;DHT22;21401;50.878;8.050;2022-07-29T04:08:47;15.50;99.90
35277;DHT22;21401;50.878;8.050;2022-07-29T04:11:13;15.30;99.90
35277;DHT22;21401;50.878;8.050;2022-07-29T04:13:39;15.40;99.90
35277;DHT22;21401;50.878;8.050;2022-07-29T04:16:04;15.30;99.90
35277;DHT22;21401;50.878;8.050;2022-07-29T04:18:32;15.20;99.90
35277;DHT22;21401;50.878;8.050;2022-07-29T04:21:00;15.30;99.90
35277;DHT22;21401;50.878;8.050;2022-07-29T04:23:31;15.00;99.90
35277;DHT22;21401;50.878;8.050;2022-07-29T04:25:58;15.10;99.90
35277;DHT22;21401;50.878;8.050;2022-07-29T04:28:25;15.10;99.90
35277;DHT22;21401;50.878;8.050;2022-07-29T04:30:53;15.00;99.90
35277;DHT22;21401;50.878;8.050;2022-07-29T04:33:19;15.00;99.90
35277;DHT22;21401;50.878;8.050;2022-07-29T04:35:44;15.00;99.90
35277;DHT22;21401;50.878;8.050;2022-07-29T04:38:10;14.60;99.90
35277;DHT22;21401;50.878;8.050;2022-07-29T04:40:38;14.60;99.90
35277;DHT22;21401;50.878;8.050;2022-07-29T04:43:04;14.60;99.90
35277;DHT22;21401;50.878;8.050;2022-07-29T04:45:32;14.60;99.90
35277;DHT22;21401;50.878;8.050;2022-07-29T04:47:58;14.70;99.90
35277;DHT22;21401;50.878;8.050;2022-07-29T04:50:26;14.80;99.90
35277;DHT22;21401;50.878;8.050;2022-07-29T04:52:51;14.70;99.90
35277;DHT22;21401;50.878;8.050;2022-07-29T04:55:19;14.80;99.90
35277;DHT22;21401;50.878;8.050;2022-07-29T04:57:45;14.90;99.90
35277;DHT22;21401;50.878;8.050;2022-07-29T05:00:13;14.80;99.90
35277;DHT22;21401;50.878;8.050;2022-07-29T05:02:41;14.90;99.90
35277;DHT22;21401;50.878;8.050;2022-07-29T05:05:08;15.00;99.90
35277;DHT22;21401;50.878;8.050;2022-07-29T05:07:33;15.00;99.90
35277;DHT22;21401;50.878;8.050;2022-07-29T05:09:59;15.00;99.90
35277;DHT22;21401;50.878;8.050;2022-07-29T05:12:25;15.20;99.90
35277;DHT22;21401;50.878;8.050;2022-07-29T05:14:53;15.20;99.90
35277;DHT22;21401;50.878;8.050;2022-07-29T05:17:19;15.30;99.90
35277;DHT22;21401;50.878;8.050;2022-07-29T05:19:47;15.40;99.90
35277;DHT22;21401;50.878;8.050;2022-07-29T05:22:12;15.60;99.90
35277;DHT22;21401;50.878;8.050;2022-07-29T05:24:38;15.80;99.90
35277;DHT22;21401;50.878;8.050;2022-07-29T05:27:04;15.90;99.90
35277;DHT22;21401;50.878;8.050;2022-07-29T05:29:29;16.20;99.90
35277;DHT22;21401;50.878;8.050;2022-07-29T05:31:55;16.10;99.90
35277;DHT22;21401;50.878;8.050;2022-07-29T05:34:20;16.30;99.90
35277;DHT22;21401;50.878;8.050;2022-07-29T05:36:46;16.40;99.90
35277;DHT22;21401;50.878;8.050;2022-07-29T05:39:11;16.70;99.90
35277;DHT22;21401;50.878;8.050;2022-07-29T05:41:38;16.70;99.90
35277;DHT22;21401;50.878;8.050;2022-07-29T05:44:06;16.90;99.90
35277;DHT22;21401;50.878;8.050;2022-07-29T05:46:31;17.10;99.90
35277;DHT22;21401;50.878;8.050;2022-07-29T05:48:59;17.40;99.90
35277;DHT22;21401;50.878;8.050;2022-07-29T05:51:25;17.50;99.90
35277;DHT22;21401;50.878;8.050;2022-07-29T05:53:53;17.60;99.90
35277;DHT22;21401;50.878;8.050;2022-07-29T05:56:21;17.70;99.90
35277;DHT22;21401;50.878;8.050;2022-07-29T05:58:49;17.90;99.90
35277;DHT22;21401;50.878;8.050;2022-07-29T06:01:17;18.00;99.90
35277;DHT22;21401;50.878;8.050;2022-07-29T06:03:42;18.30;99.90
35277;DHT22;21401;50.878;8.050;2022-07-29T06:06:10;18.50;99.90
35277;DHT22;21401;50.878;8.050;2022-07-29T06:08:36;18.90;99.90
35277;DHT22;21401;50.878;8.050;2022-07-29T06:11:05;19.00;99.90
35277;DHT22;21401;50.878;8.050;2022-07-29T06:13:31;19.20;99.90
35277;DHT22;21401;50.878;8.050;2022-07-29T06:15:57;19.40;99.90
35277;DHT22;21401;50.878;8.050;2022-07-29T06:18:22;19.50;99.90
35277;DHT22;21401;50.878;8.050;2022-07-29T06:20:53;19.30;99.90
35277;DHT22;21401;50.878;8.050;2022-07-29T06:23:20;19.30;99.90
35277;DHT22;21401;50.878;8.050;2022-07-29T06:25:48;19.40;99.90
35277;DHT22;21401;50.878;8.050;2022-07-29T06:28:13;19.40;99.90
35277;DHT22;21401;50.878;8.050;2022-07-29T06:30:42;19.50;99.90
35277;DHT22;21401;50.878;8.050;2022-07-29T06:33:08;19.70;99.90
35277;DHT22;21401;50.878;8.050;2022-07-29T06:35:34;19.90;99.90
35277;DHT22;21401;50.878;8.050;2022-07-29T06:38:04;19.90;99.90
35277;DHT22;21401;50.878;8.050;2022-07-29T06:40:30;20.50;99.90
35277;DHT22;21401;50.878;8.050;2022-07-29T06:43:14;20.70;99.90
35277;DHT22;21401;50.878;8.050;2022-07-29T06:45:40;20.90;99.90
35277;DHT22;21401;50.878;8.050;2022-07-29T06:48:06;20.90;99.90
35277;DHT22;21401;50.878;8.050;2022-07-29T06:50:32;21.10;99.90
35277;DHT22;21401;50.878;8.050;2022-07-29T06:52:57;20.80;99.90
35277;DHT22;21401;50.878;8.050;2022-07-29T06:55:23;21.00;99.90
35277;DHT22;21401;50.878;8.050;2022-07-29T06:57:48;20.80;99.90
35277;DHT22;21401;50.878;8.050;2022-07-29T07:00:14;20.80;99.90
35277;DHT22;21401;50.878;8.050;2022-07-29T07:02:40;20.90;99.90
35277;DHT22;21401;50.878;8.050;2022-07-29T07:05:06;20.80;99.90
35277;DHT22;21401;50.878;8.050;2022-07-29T07:07:32;20.80;99.90
35277;DHT22;21401;50.878;8.050;2022-07-29T07:09:57;20.80;99.80
35277;DHT22;21401;50.878;8.050;2022-07-29T07:12:23;20.90;99.90
35277;DHT22;21401;50.878;8.050;2022-07-29T07:14:51;20.90;99.50
35277;DHT22;21401;50.878;8.050;2022-07-29T07:17:16;21.00;98.40
35277;DHT22;21401;50.878;8.050;2022-07-29T07:19:42;21.00;98.70
35277;DHT22;21401;50.878;8.050;2022-07-29T07:22:08;21.10;98.50
35277;DHT22;21401;50.878;8.050;2022-07-29T07:24:33;21.20;98.90
35277;DHT22;21401;50.878;8.050;2022-07-29T07:26:59;21.20;98.20
35277;DHT22;21401;50.878;8.050;2022-07-29T07:29:27;21.20;97.70
35277;DHT22;21401;50.878;8.050;2022-07-29T07:31:52;21.20;98.40
35277;DHT22;21401;50.878;8.050;2022-07-29T07:34:18;21.30;97.80
35277;DHT22;21401;50.878;8.050;2022-07-29T07:36:44;21.20;97.60
35277;DHT22;21401;50.878;8.050;2022-07-29T07:39:12;21.40;98.20
35277;DHT22;21401;50.878;8.050;2022-07-29T07:41:37;21.40;97.80
35277;DHT22;21401;50.878;8.050;2022-07-29T07:44:03;21.60;97.10
35277;DHT22;21401;50.878;8.050;2022-07-29T07:46:29;21.60;97.40
35277;DHT22;21401;50.878;8.050;2022-07-29T07:48:57;21.80;97.50
35277;DHT22;21401;50.878;8.050;2022-07-29T07:51:22;21.90;97.00
35277;DHT22;21401;50.878;8.050;2022-07-29T07:53:48;22.00;96.00
35277;DHT22;21401;50.878;8.050;2022-07-29T07:56:16;22.30;95.60
35277;DHT22;21401;50.878;8.050;2022-07-29T07:58:41;22.20;95.30
35277;DHT22;21401;50.878;8.050;2022-07-29T08:01:08;22.20;95.30
35277;DHT22;21401;50.878;8.050;2022-07-29T08:03:36;22.30;95.30
35277;DHT22;21401;50.878;8.050;2022-07-29T08:06:03;22.70;95.10
35277;DHT22;21401;50.878;8.050;2022-07-29T08:08:29;22.90;95.00
35277;DHT22;21401;50.878;8.050;2022-07-29T08:10:54;23.40;94.70
35277;DHT22;21401;50.878;8.050;2022-07-29T08:13:25;22.90;94.20
35277;DHT22;21401;50.878;8.050;2022-07-29T08:15:53;22.90;94.50
35277;DHT22;21401;50.878;8.050;2022-07-29T08:18:28;23.20;94.60
35277;DHT22;21401;50.878;8.050;2022-07-29T08:20:54;24.00;94.10
35277;DHT22;21401;50.878;8.050;2022-07-29T08:23:20;24.20;93.00
35277;DHT22;21401;50.878;8.050;2022-07-29T08:25:46;23.50;93.80
35277;DHT22;21401;50.878;8.050;2022-07-29T08:28:12;23.80;94.10
35277;DHT22;21401;50.878;8.050;2022-07-29T08:30:37;23.60;94.00
35277;DHT22;21401;50.878;8.050;2022-07-29T08:33:03;23.80;94.20
35277;DHT22;21401;50.878;8.050;2022-07-29T08:35:29;24.10;93.90
35277;DHT22;21401;50.878;8.050;2022-07-29T08:37:55;24.30;93.30
35277;DHT22;21401;50.878;8.050;2022-07-29T08:40:22;24.30;93.00
35277;DHT22;21401;50.878;8.050;2022-07-29T08:42:49;23.60;93.50
35277;DHT22;21401;50.878;8.050;2022-07-29T08:45:15;23.50;94.20
35277;DHT22;21401;50.878;8.050;2022-07-29T08:47:41;23.10;94.70
35277;DHT22;21401;50.878;8.050;2022-07-29T08:50:08;23.20;95.00
35277;DHT22;21401;50.878;8.050;2022-07-29T08:52:37;23.30;95.10
35277;DHT22;21401;50.878;8.050;2022-07-29T08:55:06;23.30;94.70
35277;DHT22;21401;50.878;8.050;2022-07-29T08:57:35;23.30;94.80
35277;DHT22;21401;50.878;8.050;2022-07-29T09:00:03;23.50;94.30
35277;DHT22;21401;50.878;8.050;2022-07-29T09:02:35;23.40;94.20
35277;DHT22;21401;50.878;8.050;2022-07-29T09:05:02;23.40;94.70
35277;DHT22;21401;50.878;8.050;2022-07-29T09:07:32;23.50;95.60
35277;DHT22;21401;50.878;8.050;2022-07-29T09:10:00;23.30;94.90
35277;DHT22;21401;50.878;8.050;2022-07-29T09:12:26;23.40;94.80
35277;DHT22;21401;50.878;8.050;2022-07-29T09:14:52;23.50;94.70
35277;DHT22;21401;50.878;8.050;2022-07-29T09:17:39;23.30;94.30
35277;DHT22;21401;50.878;8.050;2022-07-29T09:20:14;23.10;94.80
35277;DHT22;21401;50.878;8.050;2022-07-29T09:22:40;23.20;94.60
35277;DHT22;21401;50.878;8.050;2022-07-29T09:25:06;23.30;94.70
35277;DHT22;21401;50.878;8.050;2022-07-29T09:27:32;23.80;94.60
35277;DHT22;21401;50.878;8.050;2022-07-29T09:29:59;24.30;94.40
35277;DHT22;21401;50.878;8.050;2022-07-29T09:32:26;24.10;93.80
35277;DHT22;21401;50.878;8.050;2022-07-29T09:35:21;23.90;93.80
35277;DHT22;21401;50.878;8.050;2022-07-29T09:37:47;24.40;93.70
35277;DHT22;21401;50.878;8.050;2022-07-29T09:42:46;23.80;93.90
35277;DHT22;21401;50.878;8.050;2022-07-29T09:45:12;23.90;94.20
35277;DHT22;21401;50.878;8.050;2022-07-29T09:47:45;24.10;93.80
35277;DHT22;21401;50.878;8.050;2022-07-29T09:50:12;24.60;94.20
35277;DHT22;21401;50.878;8.050;2022-07-29T09:52:49;25.10;93.50
35277;DHT22;21401;50.878;8.050;2022-07-29T09:55:15;25.40;93.30
35277;DHT22;21401;50.878;8.050;2022-07-29T09:57:41;25.10;93.10
35277;DHT22;21401;50.878;8.050;2022-07-29T10:00:08;24.80;93.10
35277;DHT22;21401;50.878;8.050;2022-07-29T10:02:36;24.50;93.60
35277;DHT22;21401;50.878;8.050;2022-07-29T10:05:04;24.40;93.50
35277;DHT22;21401;50.878;8.050;2022-07-29T10:07:53;24.60;94.10
35277;DHT22;21401;50.878;8.050;2022-07-29T10:10:26;25.50;93.60
35277;DHT22;21401;50.878;8.050;2022-07-29T10:12:56;26.20;92.30
35277;DHT22;21401;50.878;8.050;2022-07-29T10:15:23;26.20;92.30
35277;DHT22;21401;50.878;8.050;2022-07-29T10:17:50;26.60;92.10
35277;DHT22;21401;50.878;8.050;2022-07-29T10:20:16;26.70;91.40
35277;DHT22;21401;50.878;8.050;2022-07-29T10:22:42;26.00;91.90
35277;DHT22;21401;50.878;8.050;2022-07-29T10:25:12;25.90;92.20
35277;DHT22;21401;50.878;8.050;2022-07-29T10:27:39;25.80;92.10
35277;DHT22;21401;50.878;8.050;2022-07-29T10:30:05;25.80;92.60
35277;DHT22;21401;50.878;8.050;2022-07-29T10:32:51;25.80;91.80
35277;DHT22;21401;50.878;8.050;2022-07-29T10:35:39;26.00;92.60
35277;DHT22;21401;50.878;8.050;2022-07-29T10:46:35;27.20;91.40
35277;DHT22;21401;50.878;8.050;2022-07-29T10:52:09;27.20;90.90
35277;DHT22;21401;50.878;8.050;2022-07-29T10:54:41;27.50;90.50
35277;DHT22;21401;50.878;8.050;2022-07-29T10:57:21;28.10;90.30
35277;DHT22;21401;50.878;8.050;2022-07-29T11:00:32;28.10;89.00
35277;DHT22;21401;50.878;8.050;2022-07-29T11:05:06;28.50;88.30
35277;DHT22;21401;50.878;8.050;2022-07-29T11:07:40;28.30;86.90
35277;DHT22;21401;50.878;8.050;2022-07-29T11:10:23;27.90;87.20
35277;DHT22;21401;50.878;8.050;2022-07-29T11:12:49;27.40;88.40
35277;DHT22;21401;50.878;8.050;2022-07-29T11:15:16;27.20;90.20
35277;DHT22;21401;50.878;8.050;2022-07-29T11:20:38;27.80;88.50
35277;DHT22;21401;50.878;8.050;2022-07-29T11:25:43;27.30;90.10
35277;DHT22;21401;50.878;8.050;2022-07-29T11:28:15;28.30;87.70
35277;DHT22;21401;50.878;8.050;2022-07-29T11:30:49;28.10;86.60
35277;DHT22;21401;50.878;8.050;2022-07-29T11:33:32;27.50;87.10
35277;DHT22;21401;50.878;8.050;2022-07-29T11:36:14;27.30;87.40
35277;DHT22;21401;50.878;8.050;2022-07-29T11:38:40;27.20;89.00
35277;DHT22;21401;50.878;8.050;2022-07-29T11:43:53;26.70;89.30
35277;DHT22;21401;50.878;8.050;2022-07-29T11:49:11;26.70;87.70
35277;DHT22;21401;50.878;8.050;2022-07-29T11:51:37;27.00;88.20
35277;DHT22;21401;50.878;8.050;2022-07-29T11:54:04;27.10;87.00
35277;DHT22;21401;50.878;8.050;2022-07-29T11:56:31;27.10;88.30
35277;DHT22;21401;50.878;8.050;2022-07-29T11:59:07;27.60;86.50
35277;DHT22;21401;50.878;8.050;2022-07-29T12:01:35;27.70;86.20
35277;DHT22;21401;50.878;8.050;2022-07-29T12:04:07;28.20;84.70
35277;DHT22;21401;50.878;8.050;2022-07-29T12:06:34;27.50;85.10
35277;DHT22;21401;50.878;8.050;2022-07-29T12:09:03;27.40;86.00
35277;DHT22;21401;50.878;8.050;2022-07-29T12:11:34;27.70;86.90
35277;DHT22;21401;50.878;8.050;2022-07-29T12:13:59;28.00;87.10
35277;DHT22;21401;50.878;8.050;2022-07-29T12:16:37;27.00;84.90
35277;DHT22;21401;50.878;8.050;2022-07-29T12:19:03;26.80;87.20
35277;DHT22;21401;50.878;8.050;2022-07-29T12:21:45;27.40;88.40
35277;DHT22;21401;50.878;8.050;2022-07-29T12:24:11;28.10;85.20
35277;DHT22;21401;50.878;8.050;2022-07-29T12:26:58;28.00;83.80
35277;DHT22;21401;50.878;8.050;2022-07-29T12:29:24;27.80;84.00
35277;DHT22;21401;50.878;8.050;2022-07-29T12:31:53;27.60;84.00
35277;DHT22;21401;50.878;8.050;2022-07-29T12:34:27;27.30;86.80
35277;DHT22;21401;50.878;8.050;2022-07-29T12:37:05;27.80;85.70
35277;DHT22;21401;50.878;8.050;2022-07-29T12:39:34;28.40;84.50
35277;DHT22;21401;50.878;8.050;2022-07-29T12:42:13;28.30;81.20
35277;DHT22;21401;50.878;8.050;2022-07-29T12:44:46;28.00;81.90
35277;DHT22;21401;50.878;8.050;2022-07-29T12:47:12;27.70;84.40
35277;DHT22;21401;50.878;8.050;2022-07-29T12:49:38;27.70;84.80
35277;DHT22;21401;50.878;8.050;2022-07-29T12:52:26;27.90;84.90
35277;DHT22;21401;50.878;8.050;2022-07-29T12:54:52;27.80;84.20
35277;DHT22;21401;50.878;8.050;2022-07-29T12:57:18;28.00;83.60
35277;DHT22;21401;50.878;8.050;2022-07-29T12:59:43;27.80;82.10
35277;DHT22;21401;50.878;8.050;2022-07-29T13:02:21;27.70;82.50
35277;DHT22;21401;50.878;8.050;2022-07-29T13:04:58;27.10;83.80
35277;DHT22;21401;50.878;8.050;2022-07-29T13:07:28;27.20;85.30
35277;DHT22;21401;50.878;8.050;2022-07-29T13:10:09;27.40;85.20
35277;DHT22;21401;50.878;8.050;2022-07-29T13:12:35;27.60;85.20
35277;DHT22;21401;50.878;8.050;2022-07-29T13:15:14;27.80;84.80
35277;DHT22;21401;50.878;8.050;2022-07-29T13:17:44;27.70;84.00
35277;DHT22;21401;50.878;8.050;2022-07-29T13:20:13;27.60;85.00
35277;DHT22;21401;50.878;8.050;2022-07-29T13:22:40;27.50;85.20
35277;DHT22;21401;50.878;8.050;2022-07-29T13:25:08;27.70;85.50
35277;DHT22;21401;50.878;8.050;2022-07-29T13:27:35;27.30;84.50
35277;DHT22;21401;50.878;8.050;2022-07-29T13:30:04;27.20;85.20
35277;DHT22;21401;50.878;8.050;2022-07-29T13:32:30;27.30;85.30
35277;DHT22;21401;50.878;8.050;2022-07-29T13:35:02;27.00;85.10
35277;DHT22;21401;50.878;8.050;2022-07-29T13:37:28;27.00;85.50
35277;DHT22;21401;50.878;8.050;2022-07-29T13:39:55;27.00;85.70
35277;DHT22;21401;50.878;8.050;2022-07-29T13:42:21;27.20;85.80
35277;DHT22;21401;50.878;8.050;2022-07-29T13:44:47;27.40;86.10
35277;DHT22;21401;50.878;8.050;2022-07-29T13:47:16;26.80;86.00
35277;DHT22;21401;50.878;8.050;2022-07-29T13:49:41;27.00;86.60
35277;DHT22;21401;50.878;8.050;2022-07-29T13:52:09;26.60;86.10
35277;DHT22;21401;50.878;8.050;2022-07-29T13:54:35;26.80;86.60
35277;DHT22;21401;50.878;8.050;2022-07-29T13:57:03;27.00;87.50
35277;DHT22;21401;50.878;8.050;2022-07-29T13:59:29;26.80;87.50
35277;DHT22;21401;50.878;8.050;2022-07-29T14:01:54;27.10;87.10
35277;DHT22;21401;50.878;8.050;2022-07-29T14:04:20;27.00;86.70
35277;DHT22;21401;50.878;8.050;2022-07-29T14:06:47;27.20;85.90
35277;DHT22;21401;50.878;8.050;2022-07-29T14:09:12;27.30;85.40
35277;DHT22;21401;50.878;8.050;2022-07-29T14:11:38;27.50;85.40
35277;DHT22;21401;50.878;8.050;2022-07-29T14:14:04;27.60;85.30
35277;DHT22;21401;50.878;8.050;2022-07-29T14:16:30;27.80;85.40
35277;DHT22;21401;50.878;8.050;2022-07-29T14:18:55;28.00;86.00
35277;DHT22;21401;50.878;8.050;2022-07-29T14:21:21;27.80;84.00
35277;DHT22;21401;50.878;8.050;2022-07-29T14:23:46;27.70;84.40
35277;DHT22;21401;50.878;8.050;2022-07-29T14:26:13;27.50;84.50
35277;DHT22;21401;50.878;8.050;2022-07-29T14:28:38;27.10;85.50
35277;DHT22;21401;50.878;8.050;2022-07-29T14:31:04;27.20;85.70
35277;DHT22;21401;50.878;8.050;2022-07-29T14:33:32;27.40;85.70
35277;DHT22;21401;50.878;8.050;2022-07-29T14:35:58;27.60;84.60
35277;DHT22;21401;50.878;8.050;2022-07-29T14:38:23;27.70;85.00
35277;DHT22;21401;50.878;8.050;2022-07-29T14:40:49;27.40;85.30
35277;DHT22;21401;50.878;8.050;2022-07-29T14:43:15;27.30;84.40
35277;DHT22;21401;50.878;8.050;2022-07-29T14:45:41;27.40;84.90
35277;DHT22;21401;50.878;8.050;2022-07-29T14:48:06;27.20;84.90
35277;DHT22;21401;50.878;8.050;2022-07-29T14:50:36;27.20;85.10
35277;DHT22;21401;50.878;8.050;2022-07-29T14:53:05;27.10;85.70
35277;DHT22;21401;50.878;8.050;2022-07-29T14:55:33;27.20;85.60
35277;DHT22;21401;50.878;8.050;2022-07-29T14:57:58;27.20;85.60
35277;DHT22;21401;50.878;8.050;2022-07-29T15:00:25;27.10;85.60
35277;DHT22;21401;50.878;8.050;2022-07-29T15:02:50;27.10;85.00
35277;DHT22;21401;50.878;8.050;2022-07-29T15:05:16;27.10;85.80
35277;DHT22;21401;50.878;8.050;2022-07-29T15:07:42;27.20;85.70
35277;DHT22;21401;50.878;8.050;2022-07-29T15:10:10;27.10;85.40
35277;DHT22;21401;50.878;8.050;2022-07-29T15:12:36;27.10;86.50
35277;DHT22;21401;50.878;8.050;2022-07-29T15:15:02;26.90;88.00
35277;DHT22;21401;50.878;8.050;2022-07-29T15:17:27;26.70;88.20
35277;DHT22;21401;50.878;8.050;2022-07-29T15:19:55;27.10;88.80
35277;DHT22;21401;50.878;8.050;2022-07-29T15:22:21;27.00;88.60
35277;DHT22;21401;50.878;8.050;2022-07-29T15:24:47;27.20;89.60
35277;DHT22;21401;50.878;8.050;2022-07-29T15:27:14;26.90;88.90
35277;DHT22;21401;50.878;8.050;2022-07-29T15:29:41;27.20;89.80
35277;DHT22;21401;50.878;8.050;2022-07-29T15:32:07;27.40;89.40
35277;DHT22;21401;50.878;8.050;2022-07-29T15:34:33;27.60;88.20
35277;DHT22;21401;50.878;8.050;2022-07-29T15:36:59;27.50;87.40
35277;DHT22;21401;50.878;8.050;2022-07-29T15:39:24;27.20;88.70
35277;DHT22;21401;50.878;8.050;2022-07-29T15:41:50;27.20;89.90
35277;DHT22;21401;50.878;8.050;2022-07-29T15:44:16;27.20;89.60
35277;DHT22;21401;50.878;8.050;2022-07-29T15:46:42;27.50;90.00
35277;DHT22;21401;50.878;8.050;2022-07-29T15:49:26;27.40;90.00
35277;DHT22;21401;50.878;8.050;2022-07-29T15:51:59;26.90;90.10
35277;DHT22;21401;50.878;8.050;2022-07-29T15:54:28;26.90;90.60
35277;DHT22;21401;50.878;8.050;2022-07-29T15:56:56;26.60;91.00
35277;DHT22;21401;50.878;8.050;2022-07-29T15:59:22;26.70;91.20
35277;DHT22;21401;50.878;8.050;2022-07-29T16:01:48;26.90;91.60
35277;DHT22;21401;50.878;8.050;2022-07-29T16:04:14;26.90;91.20
35277;DHT22;21401;50.878;8.050;2022-07-29T16:06:40;26.80;91.20
35277;DHT22;21401;50.878;8.050;2022-07-29T16:09:06;26.90;91.20
35277;DHT22;21401;50.878;8.050;2022-07-29T16:11:31;27.00;90.00
35277;DHT22;21401;50.878;8.050;2022-07-29T16:13:57;26.40;90.20
35277;DHT22;21401;50.878;8.050;2022-07-29T16:16:23;26.60;90.70
35277;DHT22;21401;50.878;8.050;2022-07-29T16:18:49;26.90;90.10
35277;DHT22;21401;50.878;8.050;2022-07-29T16:21:14;27.10;89.20
35277;DHT22;21401;50.878;8.050;2022-07-29T16:23:40;27.10;89.50
35277;DHT22;21401;50.878;8.050;2022-07-29T16:26:10;26.90;89.90
35277;DHT22;21401;50.878;8.050;2022-07-29T16:28:36;26.80;90.10